createdAt,value
2019-03-15T00:00:28.060Z,2.10
2019-03-15T00:03:00.534Z,2.20
2019-03-15T00:05:34.575Z,1.43
2019-03-15T00:08:06.570Z,1.60
2019-03-15T00:10:39.218Z,1.40
2019-03-15T00:13:12.467Z,1.40
2019-03-15T00:15:44.172Z,1.20
2019-03-15T00:18:16.372Z,1.20
2019-03-15T00:20:48.159Z,1.10
2019-03-15T00:23:21.129Z,1.30
2019-03-15T00:25:55.344Z,1.10
2019-03-15T00:28:27.152Z,1.00
2019-03-15T00:30:58.968Z,0.93
2019-03-15T00:33:31.452Z,1.10
2019-03-15T00:36:03.128Z,1.20
2019-03-15T00:38:35.199Z,1.20
2019-03-15T00:41:07.209Z,1.55
2019-03-15T00:43:39.218Z,1.00
2019-03-15T00:46:11.275Z,1.30
2019-03-15T00:48:43.320Z,1.17
2019-03-15T00:51:15.467Z,1.20
2019-03-15T00:53:47.304Z,1.03
2019-03-15T00:56:19.199Z,1.17
2019-03-15T00:58:51.026Z,1.13
2019-03-15T01:01:24.233Z,1.10
2019-03-15T01:03:55.877Z,1.00
2019-03-15T01:06:27.749Z,0.87
2019-03-15T01:08:59.588Z,0.80
2019-03-15T01:11:31.285Z,0.93
2019-03-15T01:14:04.256Z,1.00
2019-03-15T01:16:36.116Z,0.93
2019-03-15T01:19:08.430Z,1.10
2019-03-15T01:21:40.573Z,1.00
2019-03-15T01:24:12.579Z,1.05
2019-03-15T01:26:47.017Z,1.03
2019-03-15T01:29:18.645Z,1.03
2019-03-15T01:31:50.365Z,1.30
2019-03-15T01:34:23.004Z,0.90
2019-03-15T01:36:54.982Z,1.00
2019-03-15T01:39:26.789Z,0.80
2019-03-15T01:41:59.997Z,1.10
2019-03-15T01:44:31.963Z,0.80
2019-03-15T01:47:03.841Z,1.00
2019-03-15T01:49:38.169Z,0.80
2019-03-15T01:52:10.128Z,0.70
2019-03-15T01:54:42.098Z,0.70
2019-03-15T01:57:13.834Z,0.77
2019-03-15T01:59:45.851Z,0.70
2019-03-15T02:02:17.491Z,0.90
2019-03-15T02:04:50.736Z,0.67
2019-03-15T02:07:22.875Z,0.60
2019-03-15T02:09:54.644Z,0.77
2019-03-15T02:12:26.528Z,0.77
2019-03-15T02:14:58.251Z,0.80
2019-03-15T02:17:31.642Z,0.83
2019-03-15T02:20:03.283Z,0.80
2019-03-15T02:22:35.037Z,0.90
2019-03-15T02:25:06.973Z,0.80
2019-03-15T02:27:38.665Z,0.60
2019-03-15T02:30:10.818Z,0.73
2019-03-15T02:32:42.556Z,0.80
2019-03-15T02:35:14.526Z,0.78
2019-03-15T02:37:46.747Z,0.70
2019-03-15T02:40:18.882Z,0.80
2019-03-15T02:42:53.146Z,0.80
2019-03-15T02:45:25.140Z,0.80
2019-03-15T02:47:57.012Z,0.60
2019-03-15T02:50:29.384Z,0.80
2019-03-15T02:53:01.359Z,0.50
2019-03-15T02:55:34.115Z,0.60
2019-03-15T02:58:06.336Z,0.78
2019-03-15T03:00:41.033Z,0.70
2019-03-15T03:03:13.101Z,0.75
2019-03-15T03:05:46.233Z,0.60
2019-03-15T03:08:18.259Z,0.70
2019-03-15T03:10:49.949Z,0.70
2019-03-15T03:13:22.856Z,0.82
2019-03-15T03:15:55.950Z,0.90
2019-03-15T03:18:28.133Z,0.70
2019-03-15T03:21:02.325Z,0.90
2019-03-15T03:23:34.993Z,0.80
2019-03-15T03:26:06.597Z,0.80
2019-03-15T03:28:38.483Z,0.90
2019-03-15T03:31:10.368Z,1.00
2019-03-15T03:33:42.630Z,0.90
2019-03-15T03:36:14.429Z,0.90
2019-03-15T03:38:46.163Z,0.60
2019-03-15T03:41:17.914Z,0.82
2019-03-15T03:43:50.247Z,0.70
2019-03-15T03:46:22.063Z,0.70
2019-03-15T03:48:53.894Z,0.67
2019-03-15T03:51:27.701Z,0.80
2019-03-15T03:53:59.776Z,0.90
2019-03-15T03:56:32.591Z,0.90
2019-03-15T03:59:04.472Z,0.80
2019-03-15T04:01:36.385Z,0.93
2019-03-15T04:04:08.200Z,0.80
2019-03-15T04:06:40.323Z,0.93
2019-03-15T04:09:13.251Z,0.80
2019-03-15T04:11:55.406Z,0.80
2019-03-15T04:14:22.192Z,0.80
2019-03-15T04:16:54.516Z,0.83
2019-03-15T04:19:26.991Z,0.80
2019-03-15T04:21:58.873Z,0.90
2019-03-15T04:24:30.845Z,0.90
2019-03-15T04:27:02.528Z,0.93
2019-03-15T04:29:34.552Z,0.97
2019-03-15T04:32:06.247Z,0.80
2019-03-15T04:34:39.114Z,1.03
2019-03-15T04:37:11.140Z,0.90
2019-03-15T04:39:42.798Z,1.10
2019-03-15T04:42:14.757Z,0.80
2019-03-15T04:44:47.869Z,0.90
2019-03-15T04:47:20.229Z,1.10
2019-03-15T04:49:52.113Z,1.10
2019-03-15T04:52:24.060Z,1.20
2019-03-15T04:54:55.849Z,1.20
2019-03-15T04:57:27.966Z,1.03
2019-03-15T04:59:59.692Z,1.33
2019-03-15T05:02:32.588Z,1.37
2019-03-15T05:05:04.868Z,1.50
2019-03-15T05:07:36.553Z,1.70
2019-03-15T05:10:08.835Z,1.30
2019-03-15T05:12:40.621Z,1.70
2019-03-15T05:15:12.594Z,1.60
2019-03-15T05:17:44.376Z,1.90
2019-03-15T05:20:20.974Z,2.10
2019-03-15T05:22:53.854Z,2.00
2019-03-15T05:25:25.531Z,2.20
2019-03-15T05:27:57.280Z,2.43
2019-03-15T05:30:29.013Z,2.30
2019-03-15T05:33:01.007Z,2.90
2019-03-15T05:35:32.954Z,3.17
2019-03-15T05:38:05.082Z,3.30
2019-03-15T05:40:36.696Z,3.23
2019-03-15T05:43:08.598Z,3.60
2019-03-15T05:45:40.595Z,4.20
2019-03-15T05:48:12.287Z,4.33
2019-03-15T05:50:43.942Z,4.53
2019-03-15T05:53:15.717Z,5.05
2019-03-15T05:55:48.873Z,5.50
2019-03-15T05:58:21.904Z,4.90
2019-03-15T06:00:54.134Z,5.28
2019-03-15T06:03:26.982Z,5.57
2019-03-15T06:05:58.886Z,5.80
2019-03-15T06:08:31.111Z,5.90
2019-03-15T06:11:03.069Z,5.67
2019-03-15T06:13:34.688Z,6.13
2019-03-15T06:16:06.487Z,6.80
2019-03-15T06:18:38.380Z,6.80
2019-03-15T06:21:10.568Z,6.85
2019-03-15T06:23:44.267Z,7.60
2019-03-15T06:26:16.859Z,8.20
2019-03-15T06:28:48.531Z,7.47
2019-03-15T06:31:20.544Z,7.80
2019-03-15T06:33:53.515Z,8.80
2019-03-15T06:36:25.395Z,9.70
2019-03-15T06:38:57.341Z,10.32
2019-03-15T06:41:29.012Z,9.03
2019-03-15T06:44:00.612Z,9.60
2019-03-15T06:46:32.169Z,8.63
2019-03-15T06:49:03.935Z,8.53
2019-03-15T06:51:35.703Z,8.85
2019-03-15T06:54:11.688Z,8.63
2019-03-15T06:56:41.312Z,10.33
2019-03-15T06:59:12.912Z,10.17
2019-03-15T07:01:44.990Z,11.20
2019-03-15T07:04:16.917Z,11.48
2019-03-15T07:06:48.632Z,11.70
2019-03-15T07:09:20.460Z,10.95
2019-03-15T07:11:52.225Z,11.30
2019-03-15T07:14:23.819Z,11.60
2019-03-15T07:16:55.820Z,10.80
2019-03-15T07:19:30.377Z,11.03
2019-03-15T07:22:00.952Z,10.80
2019-03-15T07:24:32.555Z,11.37
2019-03-15T07:27:12.778Z,12.50
2019-03-15T07:29:38.379Z,11.37
2019-03-15T07:32:10.140Z,11.35
2019-03-15T07:34:41.803Z,9.53
2019-03-15T07:37:13.469Z,9.80
2019-03-15T07:39:45.338Z,8.50
2019-03-15T07:42:17.247Z,8.23
2019-03-15T07:44:49.751Z,8.85
2019-03-15T07:47:21.585Z,7.70
2019-03-15T07:49:53.233Z,8.17
2019-03-15T07:52:24.926Z,7.63
2019-03-15T07:54:56.898Z,7.60
2019-03-15T07:57:28.636Z,8.37
2019-03-15T08:00:00.516Z,7.63
2019-03-15T08:02:32.336Z,7.80
2019-03-15T08:05:04.332Z,7.90
2019-03-15T08:07:42.062Z,8.20
2019-03-15T08:10:09.753Z,8.40
2019-03-15T08:12:41.823Z,8.20
2019-03-15T08:15:14.268Z,7.97
2019-03-15T08:17:46.000Z,6.50
2019-03-15T08:20:17.851Z,6.17
2019-03-15T08:22:49.596Z,6.37
2019-03-15T08:25:21.327Z,6.28
2019-03-15T08:27:53.036Z,6.60
2019-03-15T08:30:25.741Z,5.70
2019-03-15T08:33:09.473Z,5.77
2019-03-15T08:35:30.894Z,5.43
2019-03-15T08:38:05.315Z,5.50
2019-03-15T08:40:35.904Z,5.67
2019-03-15T08:43:07.586Z,6.10
2019-03-15T08:45:39.181Z,7.00
2019-03-15T08:48:11.055Z,7.22
2019-03-15T08:50:42.808Z,5.90
2019-03-15T08:53:14.722Z,6.40
2019-03-15T08:55:46.337Z,5.40
2019-03-15T08:58:21.775Z,5.13
2019-03-15T09:00:51.827Z,5.03
2019-03-15T09:03:28.234Z,5.10
2019-03-15T09:05:57.135Z,5.07
2019-03-15T09:08:29.333Z,4.87
2019-03-15T09:11:01.230Z,4.20
2019-03-15T09:13:34.595Z,4.22
2019-03-15T09:16:06.699Z,3.83
2019-03-15T09:18:38.438Z,3.63
2019-03-15T09:21:10.357Z,3.00
2019-03-15T09:23:42.547Z,3.33
2019-03-15T09:26:14.471Z,3.50
2019-03-15T09:28:46.689Z,3.60
2019-03-15T09:31:19.824Z,3.72
2019-03-15T09:33:51.452Z,3.00
2019-03-15T09:36:23.400Z,3.80
2019-03-15T09:38:55.534Z,3.00
2019-03-15T09:41:33.378Z,3.73
2019-03-15T09:44:02.765Z,3.33
2019-03-15T09:46:36.280Z,3.27
2019-03-15T09:49:08.229Z,3.70
2019-03-15T09:51:40.235Z,3.43
2019-03-15T09:54:12.022Z,3.27
2019-03-15T09:56:44.080Z,3.58
2019-03-15T09:59:19.162Z,2.97
2019-03-15T10:01:49.963Z,2.87
2019-03-15T10:04:21.786Z,3.05
2019-03-15T10:06:53.723Z,3.13
2019-03-15T10:09:25.537Z,3.13
2019-03-15T10:11:58.843Z,3.10
2019-03-15T10:14:30.965Z,3.20
2019-03-15T10:17:02.895Z,3.40
2019-03-15T10:19:34.931Z,3.10
2019-03-15T10:22:06.690Z,3.43
2019-03-15T10:24:38.855Z,3.47
2019-03-15T10:27:10.717Z,3.50
2019-03-15T10:29:44.232Z,3.77
2019-03-15T10:32:16.246Z,4.92
2019-03-15T10:34:48.660Z,4.10
2019-03-15T10:37:20.702Z,3.02
2019-03-15T10:39:52.387Z,3.00
2019-03-15T10:42:24.167Z,3.02
2019-03-15T10:44:56.352Z,2.60
2019-03-15T10:47:28.143Z,2.57
2019-03-15T10:50:00.693Z,2.33
2019-03-15T10:52:33.483Z,2.23
2019-03-15T10:55:06.325Z,2.58
2019-03-15T10:57:39.242Z,2.80
2019-03-15T11:00:12.897Z,2.50
2019-03-15T11:02:44.663Z,2.70
2019-03-15T11:05:17.144Z,2.50
2019-03-15T11:07:48.905Z,2.53
2019-03-15T11:10:20.855Z,2.50
2019-03-15T11:12:52.685Z,2.60
2019-03-15T11:15:24.383Z,2.77
2019-03-15T11:17:56.164Z,3.70
2019-03-15T11:20:28.050Z,3.33
2019-03-15T11:23:00.008Z,3.90
2019-03-15T11:25:31.836Z,3.63
2019-03-15T11:28:03.495Z,4.17
2019-03-15T11:30:35.219Z,3.97
2019-03-15T11:33:07.655Z,4.70
2019-03-15T11:35:39.359Z,4.20
2019-03-15T11:38:11.186Z,4.90
2019-03-15T11:40:44.554Z,4.30
2019-03-15T11:43:16.583Z,5.43
2019-03-15T11:45:48.731Z,3.80
2019-03-15T11:48:20.926Z,5.25
2019-03-15T11:50:52.979Z,7.23
2019-03-15T11:53:24.771Z,5.57
2019-03-15T11:55:57.047Z,5.70
2019-03-15T11:58:29.663Z,5.63
2019-03-15T12:01:01.532Z,6.27
2019-03-15T12:03:35.014Z,6.40
2019-03-15T12:06:07.138Z,5.87
2019-03-15T12:08:39.257Z,5.23
2019-03-15T12:11:11.352Z,5.47
2019-03-15T12:13:43.269Z,5.53
2019-03-15T12:16:15.072Z,5.90
2019-03-15T12:18:46.964Z,5.70
2019-03-15T12:21:18.734Z,6.40
2019-03-15T12:23:52.240Z,5.90
2019-03-15T12:26:39.467Z,5.97
2019-03-15T12:28:59.811Z,5.27
2019-03-15T12:31:31.489Z,5.80
2019-03-15T12:34:03.556Z,5.50
2019-03-15T12:36:35.385Z,5.03
2019-03-15T12:39:08.585Z,5.13
2019-03-15T12:41:40.651Z,5.50
2019-03-15T12:44:12.370Z,4.42
2019-03-15T12:46:44.747Z,4.30
2019-03-15T12:49:17.113Z,4.05
2019-03-15T12:51:49.319Z,4.50
2019-03-15T12:54:22.419Z,4.63
2019-03-15T12:56:54.357Z,4.93
2019-03-15T12:59:26.432Z,4.40
2019-03-15T13:01:59.391Z,4.50
2019-03-15T13:04:31.137Z,3.87
2019-03-15T13:07:03.045Z,3.57
2019-03-15T13:09:34.766Z,4.10
2019-03-15T13:12:06.368Z,4.07
2019-03-15T13:14:40.505Z,4.30
2019-03-15T13:17:14.025Z,3.50
2019-03-15T13:19:54.999Z,3.60
2019-03-15T13:22:20.044Z,3.40
2019-03-15T13:24:51.723Z,3.17
2019-03-15T13:27:23.511Z,3.80
2019-03-15T13:29:56.619Z,3.23
2019-03-15T13:32:28.496Z,3.20
2019-03-15T13:35:00.403Z,3.80
2019-03-15T13:37:32.020Z,3.70
2019-03-15T13:40:04.738Z,3.55
2019-03-15T13:42:36.444Z,3.73
2019-03-15T13:45:10.295Z,3.47
2019-03-15T13:47:43.705Z,3.53
2019-03-15T13:50:16.996Z,3.87
2019-03-15T13:52:49.863Z,3.70
2019-03-15T13:55:21.502Z,3.75
2019-03-15T13:57:53.320Z,3.60
2019-03-15T14:00:27.406Z,3.50
2019-03-15T14:02:59.278Z,4.07
2019-03-15T14:05:32.370Z,3.40
2019-03-15T14:08:11.718Z,3.73
2019-03-15T14:10:48.511Z,3.17
2019-03-15T14:13:12.240Z,4.27
2019-03-15T14:15:45.586Z,3.63
2019-03-15T14:18:17.826Z,4.00
2019-03-15T14:20:49.392Z,3.77
2019-03-15T14:23:22.103Z,4.13
2019-03-15T14:25:54.126Z,3.90
2019-03-15T14:28:25.835Z,3.93
2019-03-15T14:30:57.763Z,4.40
2019-03-15T14:33:30.320Z,3.80
2019-03-15T14:36:03.955Z,4.00
2019-03-15T14:38:35.548Z,4.00
2019-03-15T14:41:07.899Z,4.37
2019-03-15T14:43:41.008Z,3.63
2019-03-15T14:46:12.692Z,3.55
2019-03-15T14:48:44.499Z,3.83
2019-03-15T14:51:17.957Z,4.35
2019-03-15T14:53:49.863Z,4.10
2019-03-15T14:56:22.978Z,4.43
2019-03-15T14:58:55.991Z,4.23
2019-03-15T15:01:27.631Z,4.10
2019-03-15T15:03:59.464Z,4.60
2019-03-15T15:06:33.476Z,4.37
2019-03-15T15:09:07.499Z,4.43
2019-03-15T15:11:39.923Z,4.60
2019-03-15T15:14:11.686Z,5.03
2019-03-15T15:16:43.315Z,4.67
2019-03-15T15:19:14.950Z,4.67
2019-03-15T15:21:46.586Z,4.90
2019-03-15T15:24:18.290Z,4.60
2019-03-15T15:26:50.010Z,4.77
2019-03-15T15:29:22.213Z,4.23
2019-03-15T15:31:53.928Z,4.80
2019-03-15T15:34:25.481Z,4.93
2019-03-15T15:36:57.106Z,4.63
2019-03-15T15:39:28.926Z,5.10
2019-03-15T15:42:00.668Z,4.83
2019-03-15T15:44:32.392Z,4.70
2019-03-15T15:47:04.142Z,4.57
2019-03-15T15:49:36.131Z,4.83
2019-03-15T15:52:08.351Z,4.23
2019-03-15T15:54:41.451Z,5.00
2019-03-15T15:57:13.697Z,5.47
2019-03-15T15:59:46.024Z,4.97
2019-03-15T16:02:18.180Z,5.20
2019-03-15T16:04:50.351Z,4.90
2019-03-15T16:07:22.534Z,5.70
2019-03-15T16:09:55.561Z,5.13
2019-03-15T16:12:27.897Z,5.17
2019-03-15T16:14:59.554Z,4.57
2019-03-15T16:17:31.118Z,4.40
2019-03-15T16:20:02.876Z,4.77
2019-03-15T16:22:34.438Z,4.30
2019-03-15T16:25:06.156Z,4.53
2019-03-15T16:27:37.874Z,4.50
2019-03-15T16:30:13.342Z,4.10
2019-03-15T16:32:45.011Z,4.00
2019-03-15T16:35:16.839Z,4.00
2019-03-15T16:37:48.563Z,4.30
2019-03-15T16:40:20.437Z,4.10
2019-03-15T16:42:54.194Z,4.10
2019-03-15T16:45:29.279Z,3.97
2019-03-15T16:48:01.571Z,4.40
2019-03-15T16:50:33.428Z,4.57
2019-03-15T16:53:06.064Z,4.22
2019-03-15T16:55:37.866Z,4.63
2019-03-15T16:58:10.869Z,4.50
2019-03-15T17:00:43.026Z,5.10
2019-03-15T17:03:14.743Z,4.37
2019-03-15T17:05:46.691Z,5.30
2019-03-15T17:08:18.675Z,5.62
2019-03-15T17:10:50.443Z,5.70
2019-03-15T17:13:22.196Z,6.23
2019-03-15T17:15:54.370Z,6.40
2019-03-15T17:18:27.998Z,6.57
2019-03-15T17:21:00.477Z,6.30
2019-03-15T17:23:32.271Z,7.63
2019-03-15T17:26:04.375Z,7.53
2019-03-15T17:28:36.118Z,7.77
2019-03-15T17:31:09.996Z,7.78
2019-03-15T17:33:41.880Z,8.60
2019-03-15T17:36:14.151Z,8.08
2019-03-15T17:38:46.093Z,7.93
2019-03-15T17:41:17.891Z,7.30
2019-03-15T17:43:50.024Z,7.57
2019-03-15T17:46:22.016Z,7.83
2019-03-15T17:48:54.416Z,7.57
2019-03-15T17:51:26.338Z,8.30
2019-03-15T17:53:59.930Z,8.43
2019-03-15T17:56:31.702Z,8.67
2019-03-15T17:59:12.502Z,7.97
2019-03-15T18:01:38.161Z,8.30
2019-03-15T18:04:10.042Z,8.07
2019-03-15T18:06:42.423Z,8.17
2019-03-15T18:09:14.233Z,7.72
2019-03-15T18:11:46.236Z,8.13
2019-03-15T18:14:17.932Z,9.05
2019-03-15T18:16:49.983Z,7.97
2019-03-15T18:19:21.879Z,7.93
2019-03-15T18:21:53.656Z,8.63
2019-03-15T18:24:25.631Z,8.00
2019-03-15T18:26:57.305Z,8.33
2019-03-15T18:29:29.058Z,8.47
2019-03-15T18:32:00.717Z,8.23
2019-03-15T18:34:33.498Z,7.47
2019-03-15T18:37:06.043Z,7.97
2019-03-15T18:39:39.235Z,7.53
2019-03-15T18:42:12.853Z,8.23
2019-03-15T18:44:44.505Z,7.60
2019-03-15T18:47:16.826Z,7.57
2019-03-15T18:49:48.572Z,8.10
2019-03-15T18:52:20.361Z,8.30
2019-03-15T18:54:52.542Z,8.17
2019-03-15T18:57:24.305Z,8.30
2019-03-15T18:59:56.054Z,7.87
2019-03-15T19:02:27.748Z,8.30
2019-03-15T19:04:59.428Z,7.93
2019-03-15T19:07:31.146Z,8.00
2019-03-15T19:10:03.428Z,8.70
2019-03-15T19:12:35.164Z,8.63
2019-03-15T19:15:09.780Z,7.90
2019-03-15T19:17:41.660Z,8.97
2019-03-15T19:20:13.697Z,8.58
2019-03-15T19:22:45.591Z,8.50
2019-03-15T19:25:17.559Z,8.53
2019-03-15T19:27:49.402Z,8.60
2019-03-15T19:30:21.688Z,8.77
2019-03-15T19:32:55.642Z,8.50
2019-03-15T19:35:27.339Z,7.27
2019-03-15T19:37:59.033Z,8.37
2019-03-15T19:40:30.855Z,8.47
2019-03-15T19:43:02.933Z,8.37
2019-03-15T19:45:34.561Z,8.53
2019-03-15T19:48:06.321Z,8.30
2019-03-15T19:50:38.422Z,8.53
2019-03-15T19:53:10.192Z,8.33
2019-03-15T19:55:41.878Z,8.65
2019-03-15T19:58:13.743Z,8.85
2019-03-15T20:00:47.347Z,8.07
2019-03-15T20:03:19.055Z,8.33
2019-03-15T20:05:50.885Z,8.07
2019-03-15T20:08:22.613Z,8.48
2019-03-15T20:10:54.570Z,8.17
2019-03-15T20:13:27.632Z,8.53
2019-03-15T20:15:59.550Z,8.30
2019-03-15T20:18:31.207Z,7.87
2019-03-15T20:21:04.107Z,7.63
2019-03-15T20:23:36.198Z,7.85
2019-03-15T20:26:09.221Z,7.37
2019-03-15T20:28:41.180Z,8.10
2019-03-15T20:31:13.172Z,8.73
2019-03-15T20:33:46.969Z,9.07
2019-03-15T20:36:18.733Z,8.53
2019-03-15T20:38:50.751Z,9.10
2019-03-15T20:41:22.586Z,8.70
2019-03-15T20:43:54.410Z,8.03
2019-03-15T20:46:35.597Z,7.17
2019-03-15T20:48:59.626Z,7.57
2019-03-15T20:51:31.708Z,7.77
2019-03-15T20:54:03.850Z,6.93
2019-03-15T20:56:35.740Z,6.97
2019-03-15T20:59:07.605Z,6.30
2019-03-15T21:01:39.545Z,5.40
2019-03-15T21:04:11.586Z,5.67
2019-03-15T21:06:43.723Z,4.80
2019-03-15T21:09:15.552Z,4.20
2019-03-15T21:11:47.334Z,3.90
2019-03-15T21:14:19.224Z,4.30
2019-03-15T21:16:51.992Z,4.13
2019-03-15T21:19:24.071Z,4.25
2019-03-15T21:21:57.359Z,4.07
2019-03-15T21:24:29.149Z,3.97
2019-03-15T21:27:01.413Z,4.20
2019-03-15T21:29:33.147Z,3.93
2019-03-15T21:32:05.977Z,4.03
2019-03-15T21:34:38.355Z,4.03
2019-03-15T21:37:10.170Z,4.40
2019-03-15T21:39:42.164Z,4.17
2019-03-15T21:42:13.940Z,4.40
2019-03-15T21:44:45.649Z,4.47
2019-03-15T21:47:17.428Z,4.33
2019-03-15T21:49:49.270Z,4.13
2019-03-15T21:52:20.978Z,4.08
2019-03-15T21:54:53.151Z,4.20
2019-03-15T21:57:25.165Z,4.10
2019-03-15T21:59:57.077Z,3.90
2019-03-15T22:02:29.113Z,4.43
2019-03-15T22:05:01.104Z,3.80
2019-03-15T22:07:33.857Z,3.77
2019-03-15T22:10:06.489Z,4.10
2019-03-15T22:12:38.242Z,4.23
2019-03-15T22:15:11.220Z,4.30
2019-03-15T22:17:43.330Z,4.30
2019-03-15T22:20:15.314Z,4.85
2019-03-15T22:22:47.065Z,4.60
2019-03-15T22:25:19.191Z,4.62
2019-03-15T22:27:51.001Z,5.53
2019-03-15T22:30:23.178Z,4.85
2019-03-15T22:32:55.380Z,4.90
2019-03-15T22:35:27.090Z,5.03
2019-03-15T22:37:59.059Z,4.90
2019-03-15T22:40:31.308Z,4.73
2019-03-15T22:43:03.293Z,5.63
2019-03-15T22:45:35.452Z,4.83
2019-03-15T22:48:07.391Z,4.97
2019-03-15T22:50:39.072Z,5.00
2019-03-15T22:53:11.032Z,4.90
2019-03-15T22:55:43.798Z,4.43
2019-03-15T22:58:16.030Z,4.73
2019-03-15T23:00:49.307Z,4.77
2019-03-15T23:03:21.439Z,5.03
2019-03-15T23:05:53.721Z,4.93
2019-03-15T23:08:25.605Z,4.17
2019-03-15T23:10:57.796Z,3.90
2019-03-15T23:13:29.382Z,4.27
2019-03-15T23:16:01.351Z,4.30
2019-03-15T23:18:33.581Z,4.27
2019-03-15T23:21:06.297Z,4.03
2019-03-15T23:23:38.208Z,4.07
2019-03-15T23:26:10.534Z,4.53
2019-03-15T23:28:42.593Z,4.57
2019-03-15T23:31:14.396Z,5.27
2019-03-15T23:33:46.254Z,6.17
2019-03-15T23:36:17.910Z,6.77
2019-03-15T23:38:49.734Z,6.67
2019-03-15T23:41:21.679Z,6.17
2019-03-15T23:43:53.623Z,6.63
2019-03-15T23:46:25.311Z,6.63
2019-03-15T23:48:57.552Z,6.23
2019-03-15T23:51:29.267Z,5.73
2019-03-15T23:54:00.877Z,5.30
2019-03-15T23:56:32.559Z,4.30
2019-03-15T23:59:04.696Z,3.47
